sensor_id;sensor_type;location;lat;lon;timestamp;P1;durP1;ratioP1;P2;durP2;ratioP2
11187;SDS011;5650;52.700;7.306;2023-08-20T00:00:35;12.40;;;3.20;;
11187;SDS011;5650;52.700;7.306;2023-08-20T00:03:03;10.55;;;3.80;;
11187;SDS011;5650;52.700;7.306;2023-08-20T00:05:37;5.68;;;3.60;;
11187;SDS011;5650;52.700;7.306;2023-08-20T00:08:08;10.07;;;3.95;;
11187;SDS011;5650;52.700;7.306;2023-08-20T00:10:37;11.27;;;3.80;;
11187;SDS011;5650;52.700;7.306;2023-08-20T00:13:04;7.70;;;4.10;;
11187;SDS011;5650;52.700;7.306;2023-08-20T00:15:31;9.63;;;4.40;;
11187;SDS011;5650;52.700;7.306;2023-08-20T00:17:59;6.90;;;4.47;;
11187;SDS011;5650;52.700;7.306;2023-08-20T00:20:28;9.10;;;3.80;;
11187;SDS011;5650;52.700;7.306;2023-08-20T00:22:56;14.02;;;4.07;;
11187;SDS011;5650;52.700;7.306;2023-08-20T00:25:23;7.97;;;3.67;;
11187;SDS011;5650;52.700;7.306;2023-08-20T00:27:59;10.63;;;4.38;;
11187;SDS011;5650;52.700;7.306;2023-08-20T00:30:26;12.18;;;4.32;;
11187;SDS011;5650;52.700;7.306;2023-08-20T00:32:53;9.15;;;4.20;;
11187;SDS011;5650;52.700;7.306;2023-08-20T00:35:23;11.85;;;4.45;;
11187;SDS011;5650;52.700;7.306;2023-08-20T00:37:57;9.52;;;4.72;;
11187;SDS011;5650;52.700;7.306;2023-08-20T00:40:24;7.85;;;3.35;;
11187;SDS011;5650;52.700;7.306;2023-08-20T00:42:51;11.57;;;3.83;;
11187;SDS011;5650;52.700;7.306;2023-08-20T00:45:20;12.52;;;4.00;;
11187;SDS011;5650;52.700;7.306;2023-08-20T00:47:47;7.50;;;3.67;;
11187;SDS011;5650;52.700;7.306;2023-08-20T00:50:21;8.50;;;3.55;;
11187;SDS011;5650;52.700;7.306;2023-08-20T00:52:52;6.10;;;3.35;;
11187;SDS011;5650;52.700;7.306;2023-08-20T00:55:34;10.98;;;4.22;;
11187;SDS011;5650;52.700;7.306;2023-08-20T00:58:05;7.80;;;3.90;;
11187;SDS011;5650;52.700;7.306;2023-08-20T01:00:34;7.45;;;3.92;;
11187;SDS011;5650;52.700;7.306;2023-08-20T01:03:01;14.38;;;4.10;;
11187;SDS011;5650;52.700;7.306;2023-08-20T01:05:30;9.70;;;4.50;;
11187;SDS011;5650;52.700;7.306;2023-08-20T01:08:08;8.88;;;4.80;;
11187;SDS011;5650;52.700;7.306;2023-08-20T01:10:47;14.73;;;5.60;;
11187;SDS011;5650;52.700;7.306;2023-08-20T01:13:20;13.07;;;5.13;;
11187;SDS011;5650;52.700;7.306;2023-08-20T01:15:52;10.70;;;4.43;;
11187;SDS011;5650;52.700;7.306;2023-08-20T01:18:23;6.70;;;4.22;;
11187;SDS011;5650;52.700;7.306;2023-08-20T01:20:55;10.85;;;4.75;;
11187;SDS011;5650;52.700;7.306;2023-08-20T01:23:39;11.23;;;4.60;;
11187;SDS011;5650;52.700;7.306;2023-08-20T01:26:35;11.32;;;4.53;;
11187;SDS011;5650;52.700;7.306;2023-08-20T01:29:36;7.28;;;4.03;;
11187;SDS011;5650;52.700;7.306;2023-08-20T01:32:05;8.50;;;4.30;;
11187;SDS011;5650;52.700;7.306;2023-08-20T01:34:33;11.32;;;4.63;;
11187;SDS011;5650;52.700;7.306;2023-08-20T01:37:01;10.15;;;4.82;;
11187;SDS011;5650;52.700;7.306;2023-08-20T01:39:36;11.00;;;4.55;;
11187;SDS011;5650;52.700;7.306;2023-08-20T01:42:03;16.17;;;4.88;;
11187;SDS011;5650;52.700;7.306;2023-08-20T01:44:31;7.10;;;4.05;;
11187;SDS011;5650;52.700;7.306;2023-08-20T01:47:04;11.40;;;4.43;;
11187;SDS011;5650;52.700;7.306;2023-08-20T01:49:31;8.63;;;4.95;;
11187;SDS011;5650;52.700;7.306;2023-08-20T01:51:58;9.40;;;4.45;;
11187;SDS011;5650;52.700;7.306;2023-08-20T01:54:25;9.95;;;4.07;;
11187;SDS011;5650;52.700;7.306;2023-08-20T01:56:54;8.05;;;4.63;;
11187;SDS011;5650;52.700;7.306;2023-08-20T01:59:23;7.93;;;4.10;;
11187;SDS011;5650;52.700;7.306;2023-08-20T02:01:50;14.38;;;4.30;;
11187;SDS011;5650;52.700;7.306;2023-08-20T02:04:26;12.93;;;4.40;;
11187;SDS011;5650;52.700;7.306;2023-08-20T02:06:59;6.55;;;4.53;;
11187;SDS011;5650;52.700;7.306;2023-08-20T02:09:26;20.20;;;5.15;;
11187;SDS011;5650;52.700;7.306;2023-08-20T02:11:54;10.48;;;4.55;;
11187;SDS011;5650;52.700;7.306;2023-08-20T02:14:23;10.85;;;4.60;;
11187;SDS011;5650;52.700;7.306;2023-08-20T02:17:03;10.38;;;4.75;;
11187;SDS011;5650;52.700;7.306;2023-08-20T02:19:32;8.73;;;5.22;;
11187;SDS011;5650;52.700;7.306;2023-08-20T02:22:05;9.30;;;5.28;;
11187;SDS011;5650;52.700;7.306;2023-08-20T02:24:33;7.97;;;4.85;;
11187;SDS011;5650;52.700;7.306;2023-08-20T02:27:00;8.60;;;4.65;;
11187;SDS011;5650;52.700;7.306;2023-08-20T02:29:27;8.65;;;5.07;;
11187;SDS011;5650;52.700;7.306;2023-08-20T02:31:57;9.48;;;4.60;;
11187;SDS011;5650;52.700;7.306;2023-08-20T02:34:27;8.32;;;4.90;;
11187;SDS011;5650;52.700;7.306;2023-08-20T02:36:56;10.05;;;4.22;;
11187;SDS011;5650;52.700;7.306;2023-08-20T02:39:26;11.63;;;4.55;;
11187;SDS011;5650;52.700;7.306;2023-08-20T02:41:56;11.82;;;5.10;;
11187;SDS011;5650;52.700;7.306;2023-08-20T02:44:26;13.35;;;5.30;;
11187;SDS011;5650;52.700;7.306;2023-08-20T02:46:57;12.13;;;4.40;;
11187;SDS011;5650;52.700;7.306;2023-08-20T02:49:24;19.27;;;4.78;;
11187;SDS011;5650;52.700;7.306;2023-08-20T02:51:51;12.77;;;5.50;;
11187;SDS011;5650;52.700;7.306;2023-08-20T02:54:26;12.10;;;5.72;;
11187;SDS011;5650;52.700;7.306;2023-08-20T02:57:03;13.65;;;4.78;;
11187;SDS011;5650;52.700;7.306;2023-08-20T02:59:30;17.13;;;6.03;;
11187;SDS011;5650;52.700;7.306;2023-08-20T03:01:57;10.27;;;5.38;;
11187;SDS011;5650;52.700;7.306;2023-08-20T03:04:25;11.43;;;4.72;;
11187;SDS011;5650;52.700;7.306;2023-08-20T03:06:52;12.50;;;5.35;;
11187;SDS011;5650;52.700;7.306;2023-08-20T03:09:24;12.15;;;5.82;;
11187;SDS011;5650;52.700;7.306;2023-08-20T03:11:57;10.55;;;5.15;;
11187;SDS011;5650;52.700;7.306;2023-08-20T03:14:24;11.77;;;5.75;;
11187;SDS011;5650;52.700;7.306;2023-08-20T03:16:54;10.10;;;5.70;;
11187;SDS011;5650;52.700;7.306;2023-08-20T03:19:25;16.27;;;5.47;;
11187;SDS011;5650;52.700;7.306;2023-08-20T03:21:52;11.90;;;5.03;;
11187;SDS011;5650;52.700;7.306;2023-08-20T03:24:19;10.95;;;5.68;;
11187;SDS011;5650;52.700;7.306;2023-08-20T03:26:57;12.80;;;5.32;;
11187;SDS011;5650;52.700;7.306;2023-08-20T03:29:24;13.82;;;5.63;;
11187;SDS011;5650;52.700;7.306;2023-08-20T03:31:51;15.35;;;5.78;;
11187;SDS011;5650;52.700;7.306;2023-08-20T03:34:18;12.93;;;6.07;;
11187;SDS011;5650;52.700;7.306;2023-08-20T03:36:51;11.60;;;5.18;;
11187;SDS011;5650;52.700;7.306;2023-08-20T03:39:21;7.93;;;5.60;;
11187;SDS011;5650;52.700;7.306;2023-08-20T03:41:52;12.52;;;6.20;;
11187;SDS011;5650;52.700;7.306;2023-08-20T03:44:20;10.65;;;5.45;;
11187;SDS011;5650;52.700;7.306;2023-08-20T03:46:48;11.63;;;5.00;;
11187;SDS011;5650;52.700;7.306;2023-08-20T03:49:18;8.70;;;5.30;;
11187;SDS011;5650;52.700;7.306;2023-08-20T03:51:57;10.30;;;4.45;;
11187;SDS011;5650;52.700;7.306;2023-08-20T03:54:29;8.68;;;5.07;;
11187;SDS011;5650;52.700;7.306;2023-08-20T03:56:57;7.85;;;4.82;;
11187;SDS011;5650;52.700;7.306;2023-08-20T03:59:31;11.13;;;5.00;;
11187;SDS011;5650;52.700;7.306;2023-08-20T04:01:58;14.63;;;5.18;;
11187;SDS011;5650;52.700;7.306;2023-08-20T04:04:25;8.75;;;5.20;;
11187;SDS011;5650;52.700;7.306;2023-08-20T04:06:56;9.80;;;5.45;;
11187;SDS011;5650;52.700;7.306;2023-08-20T04:09:23;14.75;;;5.60;;
11187;SDS011;5650;52.700;7.306;2023-08-20T04:11:57;9.85;;;4.80;;
11187;SDS011;5650;52.700;7.306;2023-08-20T04:14:27;6.85;;;4.88;;
11187;SDS011;5650;52.700;7.306;2023-08-20T04:16:58;12.88;;;4.78;;
11187;SDS011;5650;52.700;7.306;2023-08-20T04:19:26;16.10;;;5.20;;
11187;SDS011;5650;52.700;7.306;2023-08-20T04:22:02;9.88;;;5.05;;
11187;SDS011;5650;52.700;7.306;2023-08-20T04:24:29;11.15;;;5.20;;
11187;SDS011;5650;52.700;7.306;2023-08-20T04:26:59;11.15;;;4.55;;
11187;SDS011;5650;52.700;7.306;2023-08-20T04:29:32;7.60;;;4.70;;
11187;SDS011;5650;52.700;7.306;2023-08-20T04:32:01;10.73;;;5.55;;
11187;SDS011;5650;52.700;7.306;2023-08-20T04:34:28;9.25;;;4.35;;
11187;SDS011;5650;52.700;7.306;2023-08-20T04:36:58;8.18;;;4.45;;
11187;SDS011;5650;52.700;7.306;2023-08-20T04:39:25;9.00;;;4.90;;
11187;SDS011;5650;52.700;7.306;2023-08-20T04:41:58;10.48;;;5.03;;
11187;SDS011;5650;52.700;7.306;2023-08-20T04:44:34;10.40;;;4.70;;
11187;SDS011;5650;52.700;7.306;2023-08-20T04:47:03;10.32;;;4.63;;
11187;SDS011;5650;52.700;7.306;2023-08-20T04:49:30;8.80;;;4.47;;
11187;SDS011;5650;52.700;7.306;2023-08-20T04:52:01;13.45;;;4.38;;
11187;SDS011;5650;52.700;7.306;2023-08-20T04:54:31;11.40;;;4.70;;
11187;SDS011;5650;52.700;7.306;2023-08-20T04:57:02;5.78;;;4.28;;
11187;SDS011;5650;52.700;7.306;2023-08-20T04:59:29;9.27;;;4.22;;
11187;SDS011;5650;52.700;7.306;2023-08-20T05:01:56;11.63;;;4.22;;
11187;SDS011;5650;52.700;7.306;2023-08-20T05:04:34;15.20;;;4.75;;
11187;SDS011;5650;52.700;7.306;2023-08-20T05:07:01;7.32;;;3.95;;
11187;SDS011;5650;52.700;7.306;2023-08-20T05:09:32;8.88;;;4.53;;
11187;SDS011;5650;52.700;7.306;2023-08-20T05:12:02;7.53;;;4.68;;
11187;SDS011;5650;52.700;7.306;2023-08-20T05:14:33;10.40;;;5.38;;
11187;SDS011;5650;52.700;7.306;2023-08-20T05:17:05;9.25;;;4.80;;
11187;SDS011;5650;52.700;7.306;2023-08-20T05:19:34;10.70;;;4.25;;
11187;SDS011;5650;52.700;7.306;2023-08-20T05:22:01;10.57;;;4.45;;
11187;SDS011;5650;52.700;7.306;2023-08-20T05:24:29;11.70;;;4.30;;
11187;SDS011;5650;52.700;7.306;2023-08-20T05:27:08;9.27;;;4.57;;
11187;SDS011;5650;52.700;7.306;2023-08-20T05:29:39;8.73;;;4.25;;
11187;SDS011;5650;52.700;7.306;2023-08-20T05:32:10;12.48;;;4.43;;
11187;SDS011;5650;52.700;7.306;2023-08-20T05:34:39;12.02;;;3.92;;
11187;SDS011;5650;52.700;7.306;2023-08-20T05:37:12;7.00;;;3.63;;
11187;SDS011;5650;52.700;7.306;2023-08-20T05:39:42;9.70;;;3.72;;
11187;SDS011;5650;52.700;7.306;2023-08-20T05:42:10;12.18;;;3.92;;
11187;SDS011;5650;52.700;7.306;2023-08-20T05:44:40;10.43;;;4.30;;
11187;SDS011;5650;52.700;7.306;2023-08-20T05:47:10;12.13;;;3.90;;
11187;SDS011;5650;52.700;7.306;2023-08-20T05:52:23;11.70;;;4.20;;
11187;SDS011;5650;52.700;7.306;2023-08-20T05:54:51;6.57;;;3.50;;
11187;SDS011;5650;52.700;7.306;2023-08-20T05:57:18;8.70;;;3.75;;
11187;SDS011;5650;52.700;7.306;2023-08-20T06:00:04;9.93;;;4.25;;
11187;SDS011;5650;52.700;7.306;2023-08-20T06:02:32;9.65;;;4.10;;
11187;SDS011;5650;52.700;7.306;2023-08-20T06:05:04;7.25;;;3.70;;
11187;SDS011;5650;52.700;7.306;2023-08-20T06:07:37;8.65;;;4.10;;
11187;SDS011;5650;52.700;7.306;2023-08-20T06:10:08;8.98;;;3.85;;
11187;SDS011;5650;52.700;7.306;2023-08-20T06:12:37;10.07;;;4.35;;
11187;SDS011;5650;52.700;7.306;2023-08-20T06:15:07;9.75;;;4.38;;
11187;SDS011;5650;52.700;7.306;2023-08-20T06:17:35;11.02;;;4.40;;
11187;SDS011;5650;52.700;7.306;2023-08-20T06:20:04;12.38;;;4.22;;
11187;SDS011;5650;52.700;7.306;2023-08-20T06:22:33;10.07;;;3.90;;
11187;SDS011;5650;52.700;7.306;2023-08-20T06:25:00;9.43;;;4.13;;
11187;SDS011;5650;52.700;7.306;2023-08-20T06:27:28;13.20;;;4.10;;
11187;SDS011;5650;52.700;7.306;2023-08-20T06:29:55;9.25;;;4.45;;
11187;SDS011;5650;52.700;7.306;2023-08-20T06:32:28;13.65;;;4.07;;
11187;SDS011;5650;52.700;7.306;2023-08-20T06:34:58;12.07;;;4.10;;
11187;SDS011;5650;52.700;7.306;2023-08-20T06:37:27;11.93;;;3.95;;
11187;SDS011;5650;52.700;7.306;2023-08-20T06:39:57;10.00;;;4.03;;
11187;SDS011;5650;52.700;7.306;2023-08-20T06:42:26;10.32;;;4.45;;
11187;SDS011;5650;52.700;7.306;2023-08-20T06:44:56;11.70;;;3.65;;
11187;SDS011;5650;52.700;7.306;2023-08-20T06:47:23;7.15;;;3.67;;
11187;SDS011;5650;52.700;7.306;2023-08-20T06:49:51;12.82;;;4.30;;
11187;SDS011;5650;52.700;7.306;2023-08-20T06:52:21;10.38;;;4.30;;
11187;SDS011;5650;52.700;7.306;2023-08-20T06:54:52;10.10;;;4.00;;
11187;SDS011;5650;52.700;7.306;2023-08-20T06:57:20;13.18;;;4.20;;
11187;SDS011;5650;52.700;7.306;2023-08-20T06:59:50;10.05;;;4.13;;
11187;SDS011;5650;52.700;7.306;2023-08-20T07:02:20;14.30;;;4.57;;
11187;SDS011;5650;52.700;7.306;2023-08-20T07:04:50;5.80;;;3.70;;
11187;SDS011;5650;52.700;7.306;2023-08-20T07:07:20;9.98;;;4.03;;
11187;SDS011;5650;52.700;7.306;2023-08-20T07:09:47;9.75;;;4.20;;
11187;SDS011;5650;52.700;7.306;2023-08-20T07:12:26;9.82;;;4.40;;
11187;SDS011;5650;52.700;7.306;2023-08-20T07:14:56;8.57;;;4.40;;
11187;SDS011;5650;52.700;7.306;2023-08-20T07:17:23;9.43;;;3.55;;
11187;SDS011;5650;52.700;7.306;2023-08-20T07:19:55;9.70;;;3.70;;
11187;SDS011;5650;52.700;7.306;2023-08-20T07:22:22;10.43;;;3.90;;
11187;SDS011;5650;52.700;7.306;2023-08-20T07:24:54;16.80;;;4.43;;
11187;SDS011;5650;52.700;7.306;2023-08-20T07:27:21;10.55;;;3.92;;
11187;SDS011;5650;52.700;7.306;2023-08-20T07:29:57;10.77;;;4.07;;
11187;SDS011;5650;52.700;7.306;2023-08-20T07:32:33;9.77;;;4.18;;
11187;SDS011;5650;52.700;7.306;2023-08-20T07:35:03;14.85;;;4.68;;
11187;SDS011;5650;52.700;7.306;2023-08-20T07:37:35;9.43;;;4.35;;
11187;SDS011;5650;52.700;7.306;2023-08-20T07:40:12;12.02;;;3.92;;
11187;SDS011;5650;52.700;7.306;2023-08-20T07:42:43;13.63;;;4.72;;
11187;SDS011;5650;52.700;7.306;2023-08-20T07:45:15;10.45;;;4.70;;
11187;SDS011;5650;52.700;7.306;2023-08-20T07:47:42;10.25;;;3.97;;
11187;SDS011;5650;52.700;7.306;2023-08-20T07:50:09;9.40;;;4.10;;
11187;SDS011;5650;52.700;7.306;2023-08-20T07:52:36;12.35;;;4.55;;
11187;SDS011;5650;52.700;7.306;2023-08-20T07:55:05;11.65;;;4.38;;
11187;SDS011;5650;52.700;7.306;2023-08-20T07:57:42;13.27;;;4.22;;
11187;SDS011;5650;52.700;7.306;2023-08-20T08:00:10;11.38;;;4.25;;
11187;SDS011;5650;52.700;7.306;2023-08-20T08:02:38;11.48;;;4.15;;
11187;SDS011;5650;52.700;7.306;2023-08-20T08:05:06;11.88;;;4.15;;
11187;SDS011;5650;52.700;7.306;2023-08-20T08:07:34;11.18;;;4.70;;
11187;SDS011;5650;52.700;7.306;2023-08-20T08:10:01;12.95;;;4.22;;
11187;SDS011;5650;52.700;7.306;2023-08-20T08:12:41;10.10;;;3.92;;
11187;SDS011;5650;52.700;7.306;2023-08-20T08:15:15;13.32;;;4.68;;
11187;SDS011;5650;52.700;7.306;2023-08-20T08:17:42;13.27;;;4.05;;
11187;SDS011;5650;52.700;7.306;2023-08-20T08:20:09;10.60;;;3.58;;
11187;SDS011;5650;52.700;7.306;2023-08-20T08:22:36;14.70;;;3.97;;
11187;SDS011;5650;52.700;7.306;2023-08-20T08:25:12;10.35;;;3.95;;
11187;SDS011;5650;52.700;7.306;2023-08-20T08:27:46;12.63;;;3.80;;
11187;SDS011;5650;52.700;7.306;2023-08-20T08:30:13;9.32;;;3.38;;
11187;SDS011;5650;52.700;7.306;2023-08-20T08:33:03;9.35;;;3.70;;
11187;SDS011;5650;52.700;7.306;2023-08-20T08:35:35;8.98;;;3.08;;
11187;SDS011;5650;52.700;7.306;2023-08-20T08:38:05;10.05;;;3.75;;
11187;SDS011;5650;52.700;7.306;2023-08-20T08:40:33;7.65;;;2.97;;
11187;SDS011;5650;52.700;7.306;2023-08-20T08:43:03;13.65;;;3.75;;
11187;SDS011;5650;52.700;7.306;2023-08-20T08:45:30;9.52;;;4.03;;
11187;SDS011;5650;52.700;7.306;2023-08-20T08:48:06;13.23;;;3.72;;
11187;SDS011;5650;52.700;7.306;2023-08-20T08:50:39;11.25;;;3.35;;
11187;SDS011;5650;52.700;7.306;2023-08-20T08:53:09;14.55;;;3.70;;
11187;SDS011;5650;52.700;7.306;2023-08-20T08:55:37;10.25;;;3.78;;
11187;SDS011;5650;52.700;7.306;2023-08-20T08:58:05;14.70;;;4.07;;
11187;SDS011;5650;52.700;7.306;2023-08-20T09:00:35;11.07;;;3.50;;
11187;SDS011;5650;52.700;7.306;2023-08-20T09:03:03;13.45;;;4.55;;
11187;SDS011;5650;52.700;7.306;2023-08-20T09:05:30;9.95;;;4.32;;
11187;SDS011;5650;52.700;7.306;2023-08-20T09:07:58;8.90;;;3.65;;
11187;SDS011;5650;52.700;7.306;2023-08-20T09:10:28;12.73;;;4.03;;
11187;SDS011;5650;52.700;7.306;2023-08-20T09:12:55;14.52;;;4.25;;
11187;SDS011;5650;52.700;7.306;2023-08-20T09:15:31;10.55;;;4.25;;
11187;SDS011;5650;52.700;7.306;2023-08-20T09:18:03;11.68;;;4.05;;
11187;SDS011;5650;52.700;7.306;2023-08-20T09:20:34;12.18;;;4.30;;
11187;SDS011;5650;52.700;7.306;2023-08-20T09:23:02;10.00;;;4.53;;
11187;SDS011;5650;52.700;7.306;2023-08-20T09:25:32;12.30;;;4.38;;
11187;SDS011;5650;52.700;7.306;2023-08-20T09:28:04;11.15;;;4.57;;
11187;SDS011;5650;52.700;7.306;2023-08-20T09:30:37;11.00;;;4.00;;
11187;SDS011;5650;52.700;7.306;2023-08-20T09:33:07;15.10;;;4.95;;
11187;SDS011;5650;52.700;7.306;2023-08-20T09:35:36;12.05;;;4.68;;
11187;SDS011;5650;52.700;7.306;2023-08-20T09:38:14;14.48;;;4.68;;
11187;SDS011;5650;52.700;7.306;2023-08-20T09:40:45;9.73;;;4.22;;
11187;SDS011;5650;52.700;7.306;2023-08-20T09:43:14;12.30;;;5.03;;
11187;SDS011;5650;52.700;7.306;2023-08-20T09:45:44;14.55;;;4.78;;
11187;SDS011;5650;52.700;7.306;2023-08-20T09:48:13;12.68;;;4.05;;
11187;SDS011;5650;52.700;7.306;2023-08-20T09:50:44;10.23;;;3.90;;
11187;SDS011;5650;52.700;7.306;2023-08-20T09:53:20;14.57;;;3.85;;
11187;SDS011;5650;52.700;7.306;2023-08-20T09:56:07;7.18;;;3.38;;
11187;SDS011;5650;52.700;7.306;2023-08-20T09:58:36;7.15;;;3.25;;
11187;SDS011;5650;52.700;7.306;2023-08-20T10:01:07;15.68;;;4.25;;
11187;SDS011;5650;52.700;7.306;2023-08-20T10:03:34;9.43;;;3.72;;
11187;SDS011;5650;52.700;7.306;2023-08-20T10:06:08;8.77;;;3.08;;
11187;SDS011;5650;52.700;7.306;2023-08-20T10:08:42;8.90;;;3.03;;
11187;SDS011;5650;52.700;7.306;2023-08-20T10:11:11;8.68;;;3.42;;
11187;SDS011;5650;52.700;7.306;2023-08-20T10:13:38;11.85;;;3.88;;
11187;SDS011;5650;52.700;7.306;2023-08-20T10:16:12;9.23;;;4.22;;
11187;SDS011;5650;52.700;7.306;2023-08-20T10:18:40;13.98;;;4.05;;
11187;SDS011;5650;52.700;7.306;2023-08-20T10:24:10;9.27;;;3.47;;
11187;SDS011;5650;52.700;7.306;2023-08-20T10:26:42;8.15;;;3.20;;
11187;SDS011;5650;52.700;7.306;2023-08-20T10:32:05;8.23;;;3.50;;
11187;SDS011;5650;52.700;7.306;2023-08-20T10:34:38;12.18;;;3.65;;
11187;SDS011;5650;52.700;7.306;2023-08-20T10:37:11;11.25;;;3.38;;
11187;SDS011;5650;52.700;7.306;2023-08-20T10:39:44;12.25;;;3.30;;
11187;SDS011;5650;52.700;7.306;2023-08-20T10:42:25;9.35;;;3.28;;
11187;SDS011;5650;52.700;7.306;2023-08-20T10:45:08;12.00;;;2.78;;
11187;SDS011;5650;52.700;7.306;2023-08-20T10:47:37;11.00;;;2.50;;
11187;SDS011;5650;52.700;7.306;2023-08-20T10:50:15;9.32;;;2.75;;
11187;SDS011;5650;52.700;7.306;2023-08-20T10:52:50;7.63;;;2.80;;
11187;SDS011;5650;52.700;7.306;2023-08-20T10:55:24;7.45;;;2.35;;
11187;SDS011;5650;52.700;7.306;2023-08-20T10:57:58;8.40;;;2.97;;
11187;SDS011;5650;52.700;7.306;2023-08-20T11:00:30;6.80;;;2.17;;
11187;SDS011;5650;52.700;7.306;2023-08-20T11:03:00;6.60;;;2.30;;
11187;SDS011;5650;52.700;7.306;2023-08-20T11:05:28;7.03;;;2.10;;
11187;SDS011;5650;52.700;7.306;2023-08-20T11:07:55;6.88;;;1.85;;
11187;SDS011;5650;52.700;7.306;2023-08-20T11:10:36;8.10;;;2.22;;
11187;SDS011;5650;52.700;7.306;2023-08-20T11:13:03;9.05;;;2.22;;
11187;SDS011;5650;52.700;7.306;2023-08-20T11:15:34;11.45;;;2.80;;
11187;SDS011;5650;52.700;7.306;2023-08-20T11:18:06;8.93;;;2.25;;
11187;SDS011;5650;52.700;7.306;2023-08-20T11:20:39;5.75;;;1.80;;
11187;SDS011;5650;52.700;7.306;2023-08-20T11:23:07;3.40;;;1.52;;
11187;SDS011;5650;52.700;7.306;2023-08-20T11:25:40;7.60;;;2.40;;
11187;SDS011;5650;52.700;7.306;2023-08-20T11:28:07;3.47;;;1.55;;
11187;SDS011;5650;52.700;7.306;2023-08-20T11:30:37;7.90;;;1.77;;
11187;SDS011;5650;52.700;7.306;2023-08-20T11:33:06;4.10;;;1.80;;
11187;SDS011;5650;52.700;7.306;2023-08-20T11:35:34;3.75;;;1.48;;
11187;SDS011;5650;52.700;7.306;2023-08-20T11:38:02;3.70;;;1.27;;
11187;SDS011;5650;52.700;7.306;2023-08-20T11:40:30;3.25;;;1.42;;
11187;SDS011;5650;52.700;7.306;2023-08-20T11:42:57;3.40;;;1.30;;
11187;SDS011;5650;52.700;7.306;2023-08-20T11:45:27;4.50;;;1.20;;
11187;SDS011;5650;52.700;7.306;2023-08-20T11:47:57;3.53;;;1.50;;
11187;SDS011;5650;52.700;7.306;2023-08-20T11:50:26;4.13;;;1.38;;
11187;SDS011;5650;52.700;7.306;2023-08-20T11:52:56;5.28;;;1.20;;
11187;SDS011;5650;52.700;7.306;2023-08-20T11:55:26;6.45;;;1.30;;
11187;SDS011;5650;52.700;7.306;2023-08-20T11:57:56;4.82;;;1.48;;
11187;SDS011;5650;52.700;7.306;2023-08-20T12:00:27;5.22;;;1.50;;
11187;SDS011;5650;52.700;7.306;2023-08-20T12:02:59;3.67;;;1.10;;
11187;SDS011;5650;52.700;7.306;2023-08-20T12:05:31;10.80;;;1.40;;
11187;SDS011;5650;52.700;7.306;2023-08-20T12:11:07;5.45;;;1.60;;
11187;SDS011;5650;52.700;7.306;2023-08-20T12:13:34;4.97;;;1.30;;
11187;SDS011;5650;52.700;7.306;2023-08-20T12:16:01;1.98;;;0.90;;
11187;SDS011;5650;52.700;7.306;2023-08-20T12:18:29;2.42;;;1.13;;
11187;SDS011;5650;52.700;7.306;2023-08-20T12:20:58;2.58;;;1.00;;
11187;SDS011;5650;52.700;7.306;2023-08-20T12:23:25;4.53;;;1.23;;
11187;SDS011;5650;52.700;7.306;2023-08-20T12:25:55;2.65;;;0.90;;
11187;SDS011;5650;52.700;7.306;2023-08-20T12:28:31;3.00;;;0.98;;
11187;SDS011;5650;52.700;7.306;2023-08-20T12:30:58;2.58;;;1.02;;
11187;SDS011;5650;52.700;7.306;2023-08-20T12:33:26;5.07;;;1.00;;
11187;SDS011;5650;52.700;7.306;2023-08-20T12:36:04;1.98;;;0.88;;
11187;SDS011;5650;52.700;7.306;2023-08-20T12:38:34;0.52;;;0.50;;
11187;SDS011;5650;52.700;7.306;2023-08-20T12:41:02;1.83;;;0.82;;
11187;SDS011;5650;52.700;7.306;2023-08-20T12:43:30;3.45;;;1.00;;
11187;SDS011;5650;52.700;7.306;2023-08-20T12:46:03;1.85;;;0.60;;
11187;SDS011;5650;52.700;7.306;2023-08-20T12:48:33;1.70;;;0.70;;
11187;SDS011;5650;52.700;7.306;2023-08-20T12:51:00;5.22;;;0.90;;
11187;SDS011;5650;52.700;7.306;2023-08-20T12:53:32;2.45;;;1.00;;
11187;SDS011;5650;52.700;7.306;2023-08-20T12:55:59;1.70;;;0.85;;
11187;SDS011;5650;52.700;7.306;2023-08-20T12:58:29;2.38;;;0.90;;
11187;SDS011;5650;52.700;7.306;2023-08-20T13:00:56;3.95;;;1.33;;
11187;SDS011;5650;52.700;7.306;2023-08-20T13:03:24;1.80;;;0.80;;
11187;SDS011;5650;52.700;7.306;2023-08-20T13:05:53;3.38;;;1.00;;
11187;SDS011;5650;52.700;7.306;2023-08-20T13:08:22;1.98;;;1.00;;
11187;SDS011;5650;52.700;7.306;2023-08-20T13:10:54;1.85;;;0.90;;
11187;SDS011;5650;52.700;7.306;2023-08-20T13:13:23;3.47;;;1.02;;
11187;SDS011;5650;52.700;7.306;2023-08-20T13:15:51;3.70;;;1.15;;
11187;SDS011;5650;52.700;7.306;2023-08-20T13:18:20;3.83;;;1.08;;
11187;SDS011;5650;52.700;7.306;2023-08-20T13:20:52;9.85;;;1.20;;
11187;SDS011;5650;52.700;7.306;2023-08-20T13:23:19;3.88;;;1.05;;
11187;SDS011;5650;52.700;7.306;2023-08-20T13:25:54;2.85;;;0.77;;
11187;SDS011;5650;52.700;7.306;2023-08-20T13:28:21;6.18;;;1.10;;
11187;SDS011;5650;52.700;7.306;2023-08-20T13:30:51;3.90;;;0.98;;
11187;SDS011;5650;52.700;7.306;2023-08-20T13:33:19;3.70;;;1.00;;
11187;SDS011;5650;52.700;7.306;2023-08-20T13:35:46;7.15;;;1.10;;
11187;SDS011;5650;52.700;7.306;2023-08-20T13:38:20;3.63;;;1.08;;
11187;SDS011;5650;52.700;7.306;2023-08-20T13:40:47;3.45;;;1.13;;
11187;SDS011;5650;52.700;7.306;2023-08-20T13:43:16;4.45;;;0.77;;
11187;SDS011;5650;52.700;7.306;2023-08-20T13:45:43;4.70;;;1.30;;
11187;SDS011;5650;52.700;7.306;2023-08-20T13:48:16;3.88;;;0.80;;
11187;SDS011;5650;52.700;7.306;2023-08-20T13:50:46;3.22;;;1.30;;
11187;SDS011;5650;52.700;7.306;2023-08-20T13:53:13;4.85;;;1.00;;
11187;SDS011;5650;52.700;7.306;2023-08-20T13:55:45;2.20;;;0.80;;
11187;SDS011;5650;52.700;7.306;2023-08-20T13:58:12;4.28;;;1.13;;
11187;SDS011;5650;52.700;7.306;2023-08-20T14:00:47;3.42;;;0.95;;
11187;SDS011;5650;52.700;7.306;2023-08-20T14:03:14;3.97;;;1.42;;
11187;SDS011;5650;52.700;7.306;2023-08-20T14:05:41;3.63;;;1.17;;
11187;SDS011;5650;52.700;7.306;2023-08-20T14:08:22;4.10;;;1.10;;
11187;SDS011;5650;52.700;7.306;2023-08-20T14:10:55;5.47;;;1.30;;
11187;SDS011;5650;52.700;7.306;2023-08-20T14:13:35;4.93;;;1.30;;
11187;SDS011;5650;52.700;7.306;2023-08-20T14:16:02;3.25;;;0.98;;
11187;SDS011;5650;52.700;7.306;2023-08-20T14:18:32;3.47;;;0.80;;
11187;SDS011;5650;52.700;7.306;2023-08-20T14:21:02;4.93;;;1.30;;
11187;SDS011;5650;52.700;7.306;2023-08-20T14:23:31;2.80;;;0.93;;
11187;SDS011;5650;52.700;7.306;2023-08-20T14:26:00;3.30;;;1.05;;
11187;SDS011;5650;52.700;7.306;2023-08-20T14:28:30;3.97;;;1.00;;
11187;SDS011;5650;52.700;7.306;2023-08-20T14:31:05;3.80;;;1.08;;
11187;SDS011;5650;52.700;7.306;2023-08-20T14:33:35;2.00;;;0.82;;
11187;SDS011;5650;52.700;7.306;2023-08-20T14:36:03;3.13;;;1.25;;
11187;SDS011;5650;52.700;7.306;2023-08-20T14:38:30;3.90;;;1.08;;
11187;SDS011;5650;52.700;7.306;2023-08-20T14:41:01;2.20;;;1.00;;
11187;SDS011;5650;52.700;7.306;2023-08-20T14:43:31;4.38;;;1.20;;
11187;SDS011;5650;52.700;7.306;2023-08-20T14:46:06;4.82;;;1.20;;
11187;SDS011;5650;52.700;7.306;2023-08-20T14:48:33;6.47;;;1.30;;
11187;SDS011;5650;52.700;7.306;2023-08-20T14:51:06;5.95;;;1.05;;
11187;SDS011;5650;52.700;7.306;2023-08-20T14:53:33;3.88;;;1.30;;
11187;SDS011;5650;52.700;7.306;2023-08-20T14:56:00;3.88;;;1.20;;
11187;SDS011;5650;52.700;7.306;2023-08-20T14:58:28;4.38;;;1.17;;
11187;SDS011;5650;52.700;7.306;2023-08-20T15:00:55;2.50;;;1.00;;
11187;SDS011;5650;52.700;7.306;2023-08-20T15:03:30;6.18;;;1.33;;
11187;SDS011;5650;52.700;7.306;2023-08-20T15:05:57;7.20;;;1.83;;
11187;SDS011;5650;52.700;7.306;2023-08-20T15:08:33;5.07;;;1.08;;
11187;SDS011;5650;52.700;7.306;2023-08-20T15:11:04;4.57;;;1.40;;
11187;SDS011;5650;52.700;7.306;2023-08-20T15:13:31;2.85;;;1.02;;
11187;SDS011;5650;52.700;7.306;2023-08-20T15:16:02;6.88;;;1.50;;
11187;SDS011;5650;52.700;7.306;2023-08-20T15:18:36;2.67;;;0.93;;
11187;SDS011;5650;52.700;7.306;2023-08-20T15:21:04;8.10;;;1.35;;
11187;SDS011;5650;52.700;7.306;2023-08-20T15:23:31;6.47;;;1.30;;
11187;SDS011;5650;52.700;7.306;2023-08-20T15:25:59;4.97;;;1.00;;